createdAt,value
2018-12-09T00:00:36.719Z,9.43
2018-12-09T00:03:07.088Z,8.87
2018-12-09T00:05:38.447Z,7.90
2018-12-09T00:08:08.863Z,7.97
2018-12-09T00:10:40.014Z,10.03
2018-12-09T00:13:10.386Z,11.03
2018-12-09T00:15:40.790Z,8.27
2018-12-09T00:18:12.185Z,10.97
2018-12-09T00:20:42.765Z,9.83
2018-12-09T00:23:13.163Z,9.60
2018-12-09T00:25:44.246Z,14.27
2018-12-09T00:28:22.826Z,11.87
2018-12-09T00:30:53.961Z,13.70
2018-12-09T00:33:25.332Z,14.00
2018-12-09T00:35:55.955Z,9.90
2018-12-09T00:38:27.098Z,12.17
2018-12-09T00:40:58.240Z,13.17
2018-12-09T00:43:29.431Z,13.13
2018-12-09T00:45:59.802Z,15.20
2018-12-09T00:48:30.956Z,12.93
2018-12-09T00:51:03.050Z,12.60
2018-12-09T00:53:33.622Z,12.17
2018-12-09T00:56:04.005Z,12.03
2018-12-09T00:58:34.415Z,10.60
2018-12-09T01:01:04.979Z,15.50
2018-12-09T01:03:37.417Z,15.20
2018-12-09T01:06:07.764Z,11.23
2018-12-09T01:08:38.139Z,12.23
2018-12-09T01:11:08.450Z,12.37
2018-12-09T01:13:39.047Z,9.70
2018-12-09T01:16:09.601Z,6.33
2018-12-09T01:18:59.391Z,5.57
2018-12-09T01:21:36.916Z,9.27
2018-12-09T01:24:08.077Z,7.67
2018-12-09T01:26:39.210Z,11.77
2018-12-09T01:29:11.378Z,9.10
2018-12-09T01:31:42.545Z,10.87
2018-12-09T01:34:12.857Z,9.20
2018-12-09T01:36:43.945Z,14.13
2018-12-09T01:39:18.378Z,11.13
2018-12-09T01:41:48.753Z,14.40
2018-12-09T01:44:19.130Z,14.73
2018-12-09T01:46:49.527Z,17.80
2018-12-09T01:49:22.145Z,13.07
2018-12-09T01:51:52.716Z,15.20
2018-12-09T01:54:23.134Z,17.13
2018-12-09T01:56:53.765Z,16.10
2018-12-09T01:59:26.188Z,19.47
2018-12-09T02:01:56.776Z,16.60
2018-12-09T02:04:27.919Z,16.10
2018-12-09T02:06:58.298Z,16.50
2018-12-09T02:12:12.689Z,16.57
2018-12-09T02:14:43.043Z,13.53
2018-12-09T02:17:14.182Z,16.23
2018-12-09T02:19:45.319Z,19.73
2018-12-09T02:22:16.695Z,15.80
2018-12-09T02:24:47.066Z,18.97
2018-12-09T02:27:17.456Z,14.13
2018-12-09T02:29:47.882Z,16.97
2018-12-09T02:32:18.254Z,12.73
2018-12-09T02:34:51.566Z,7.83
2018-12-09T02:37:22.733Z,8.53
2018-12-09T02:39:53.118Z,8.97
2018-12-09T02:42:23.497Z,8.03
2018-12-09T02:44:53.908Z,6.43
2018-12-09T02:47:25.057Z,9.93
2018-12-09T02:49:55.438Z,6.67
2018-12-09T02:52:26.109Z,6.47
2018-12-09T02:54:57.256Z,9.80
2018-12-09T02:57:28.396Z,13.50
2018-12-09T02:59:59.562Z,17.17
2018-12-09T03:02:29.933Z,13.13
2018-12-09T03:05:00.308Z,14.43
2018-12-09T03:07:30.699Z,12.43
2018-12-09T03:10:01.072Z,13.60
2018-12-09T03:12:31.536Z,11.83
2018-12-09T03:15:01.881Z,17.33
2018-12-09T03:17:32.185Z,13.87
2018-12-09T03:20:02.510Z,15.97
2018-12-09T03:22:33.179Z,13.37
2018-12-09T03:25:04.329Z,11.63
2018-12-09T03:27:35.462Z,14.07
2018-12-09T03:30:05.868Z,17.73
2018-12-09T03:32:36.246Z,16.07
2018-12-09T03:35:06.623Z,17.63
2018-12-09T03:37:37.019Z,16.87
2018-12-09T03:40:14.717Z,12.50
2018-12-09T03:43:05.521Z,12.30
2018-12-09T03:45:35.902Z,13.10
2018-12-09T03:48:07.234Z,11.90
2018-12-09T03:50:37.634Z,17.33
2018-12-09T03:53:08.020Z,12.00
2018-12-09T03:55:38.332Z,16.60
2018-12-09T03:58:09.444Z,12.13
2018-12-09T04:00:39.821Z,15.37
2018-12-09T04:03:10.213Z,13.40
2018-12-09T04:05:40.620Z,12.00
2018-12-09T04:08:10.937Z,15.97
2018-12-09T04:10:41.319Z,15.83
2018-12-09T04:13:11.678Z,18.40
2018-12-09T04:16:03.467Z,15.67
2018-12-09T04:18:33.874Z,16.00
2018-12-09T04:21:04.246Z,15.43
2018-12-09T04:23:34.560Z,14.83
2018-12-09T04:26:04.963Z,17.30
2018-12-09T04:28:35.351Z,13.17
2018-12-09T04:31:05.660Z,22.17
2018-12-09T04:33:40.158Z,12.97
2018-12-09T04:36:10.540Z,20.73
2018-12-09T04:38:41.098Z,15.27
2018-12-09T04:41:12.290Z,16.67
2018-12-09T04:44:02.043Z,16.57
2018-12-09T04:46:32.448Z,16.67
2018-12-09T04:49:03.595Z,17.50
2018-12-09T04:51:34.748Z,11.80
2018-12-09T04:54:05.215Z,15.93
2018-12-09T04:56:35.536Z,17.10
2018-12-09T04:59:27.360Z,10.50
2018-12-09T05:02:04.901Z,16.17
2018-12-09T05:04:36.085Z,13.07
2018-12-09T05:07:06.468Z,16.33
2018-12-09T05:09:36.851Z,19.27
2018-12-09T05:12:11.542Z,11.73
2018-12-09T05:14:41.923Z,15.47
2018-12-09T05:17:30.656Z,17.30
2018-12-09T05:20:01.029Z,11.67
2018-12-09T05:22:31.348Z,14.77
2018-12-09T05:25:01.759Z,12.93
2018-12-09T05:27:33.101Z,12.03
2018-12-09T05:30:05.513Z,13.67
2018-12-09T05:32:36.689Z,10.93
2018-12-09T05:35:07.068Z,20.40
2018-12-09T05:37:38.404Z,14.93
2018-12-09T05:40:08.819Z,13.20
2018-12-09T05:42:41.239Z,11.97
2018-12-09T05:45:12.441Z,16.10
2018-12-09T05:47:43.840Z,16.17
2018-12-09T05:50:14.977Z,15.80
2018-12-09T05:52:46.118Z,14.40
2018-12-09T05:55:16.512Z,16.80
2018-12-09T05:57:47.091Z,16.87
2018-12-09T06:00:18.174Z,13.73
2018-12-09T06:02:56.124Z,16.67
2018-12-09T06:05:27.452Z,15.73
2018-12-09T06:07:57.776Z,11.57
2018-12-09T06:10:28.178Z,14.73
2018-12-09T06:13:18.891Z,18.50
2018-12-09T06:15:49.299Z,11.50
2018-12-09T06:18:19.681Z,19.00
2018-12-09T06:20:50.824Z,13.20
2018-12-09T06:23:22.965Z,16.97
2018-12-09T06:28:38.285Z,15.33
2018-12-09T06:31:09.428Z,13.37
2018-12-09T06:33:40.823Z,19.50
2018-12-09T06:36:11.172Z,18.70
2018-12-09T06:38:41.556Z,13.90
2018-12-09T06:41:11.925Z,21.13
2018-12-09T06:43:42.337Z,17.90
2018-12-09T06:46:32.101Z,17.87
2018-12-09T06:49:02.489Z,18.47
2018-12-09T06:51:33.627Z,16.27
2018-12-09T06:54:03.998Z,18.60
2018-12-09T06:56:34.404Z,14.03
2018-12-09T06:59:05.542Z,16.17
2018-12-09T07:01:36.690Z,21.53
2018-12-09T07:04:07.117Z,15.87
2018-12-09T07:06:38.259Z,19.93
2018-12-09T07:09:09.405Z,21.17
2018-12-09T07:11:40.580Z,22.80
2018-12-09T07:14:10.954Z,19.30
2018-12-09T07:16:41.320Z,18.50
2018-12-09T07:19:11.728Z,18.43
2018-12-09T07:21:42.868Z,20.87
2018-12-09T07:24:13.951Z,22.43
2018-12-09T07:26:44.542Z,16.63
2018-12-09T07:29:15.999Z,18.47
2018-12-09T07:31:47.349Z,16.60
2018-12-09T07:34:19.735Z,13.70
2018-12-09T07:36:50.120Z,17.80
2018-12-09T07:39:20.439Z,19.77
2018-12-09T07:41:50.863Z,16.10
2018-12-09T07:44:21.234Z,14.60
2018-12-09T07:46:51.785Z,18.80
2018-12-09T07:49:23.162Z,20.77
2018-12-09T07:51:53.733Z,19.73
2018-12-09T07:54:25.106Z,19.03
2018-12-09T07:56:55.522Z,17.33
2018-12-09T07:59:25.901Z,15.67
2018-12-09T08:01:56.222Z,16.40
2018-12-09T08:04:26.628Z,16.23
2018-12-09T08:06:59.052Z,15.17
2018-12-09T08:09:29.421Z,17.87
2018-12-09T08:11:59.820Z,10.93
2018-12-09T08:14:30.981Z,15.13
2018-12-09T08:17:01.347Z,17.03
2018-12-09T08:19:31.756Z,12.30
2018-12-09T08:22:06.230Z,14.13
2018-12-09T08:24:37.591Z,14.60
2018-12-09T08:27:08.152Z,15.53
2018-12-09T08:29:38.466Z,10.83
2018-12-09T08:32:08.866Z,14.70
2018-12-09T08:34:39.957Z,12.13
2018-12-09T08:37:14.605Z,14.03
2018-12-09T08:39:45.206Z,15.27
2018-12-09T08:42:16.605Z,12.27
2018-12-09T08:44:47.183Z,10.40
2018-12-09T08:47:17.762Z,16.67
2018-12-09T08:49:48.153Z,15.00
2018-12-09T08:52:37.926Z,18.53
2018-12-09T08:55:10.349Z,15.30
2018-12-09T08:57:40.908Z,15.27
2018-12-09T09:00:11.521Z,13.63
2018-12-09T09:02:42.659Z,15.83
2018-12-09T09:05:15.311Z,19.73
2018-12-09T09:07:45.697Z,15.87
2018-12-09T09:10:16.077Z,13.93
2018-12-09T09:12:46.585Z,18.15
2018-12-09T09:15:17.683Z,14.13
2018-12-09T09:17:48.069Z,16.43
2018-12-09T09:20:18.779Z,14.10
2018-12-09T09:22:49.310Z,13.00
2018-12-09T09:25:25.256Z,13.97
2018-12-09T09:27:55.609Z,13.43
2018-12-09T09:30:26.190Z,17.50
2018-12-09T09:32:56.858Z,16.40
2018-12-09T09:35:27.365Z,11.07
2018-12-09T09:40:42.794Z,14.77
2018-12-09T09:43:13.387Z,16.97
2018-12-09T09:45:43.771Z,14.60
2018-12-09T09:48:14.156Z,11.70
2018-12-09T09:50:44.564Z,11.00
2018-12-09T09:53:14.943Z,13.70
2018-12-09T09:55:48.026Z,12.93
2018-12-09T09:58:20.986Z,12.97
2018-12-09T10:00:51.309Z,11.60
2018-12-09T10:03:25.831Z,14.80
2018-12-09T10:05:52.043Z,12.03
2018-12-09T10:08:25.384Z,8.97
2018-12-09T10:10:55.797Z,15.77
2018-12-09T10:13:31.025Z,12.87
2018-12-09T10:16:01.423Z,15.37
2018-12-09T10:18:33.023Z,13.90
2018-12-09T10:21:08.746Z,18.03
2018-12-09T10:23:41.858Z,13.67
2018-12-09T10:26:15.036Z,11.83
2018-12-09T10:28:50.247Z,15.03
2018-12-09T10:31:27.314Z,12.47
2018-12-09T10:34:00.752Z,12.40
2018-12-09T10:36:38.755Z,10.83
2018-12-09T10:39:09.136Z,13.10
2018-12-09T10:41:42.384Z,13.20
2018-12-09T10:44:15.569Z,12.97
2018-12-09T10:46:48.774Z,14.07
2018-12-09T10:49:19.186Z,14.57
2018-12-09T10:51:49.607Z,12.53
2018-12-09T10:54:20.187Z,14.73
2018-12-09T10:56:53.498Z,12.63
2018-12-09T10:59:26.605Z,14.43
2018-12-09T11:02:17.496Z,14.03
2018-12-09T11:04:47.842Z,13.57
2018-12-09T11:07:18.321Z,12.80
2018-12-09T11:09:48.561Z,20.60
2018-12-09T11:12:18.928Z,13.73
2018-12-09T11:14:49.333Z,12.63
2018-12-09T11:17:19.749Z,11.70
2018-12-09T11:19:52.694Z,15.10
2018-12-09T11:22:23.076Z,11.73
2018-12-09T11:24:55.906Z,10.47
2018-12-09T11:27:26.268Z,14.83
2018-12-09T11:29:56.680Z,12.67
2018-12-09T11:32:29.109Z,12.90
2018-12-09T11:35:02.231Z,14.63
2018-12-09T11:37:32.566Z,13.83
2018-12-09T11:40:06.813Z,12.80
2018-12-09T11:42:37.210Z,15.13
2018-12-09T11:45:07.610Z,12.67
2018-12-09T11:47:38.040Z,10.73
2018-12-09T11:50:08.434Z,13.27
2018-12-09T11:52:39.649Z,17.83
2018-12-09T11:55:10.774Z,12.20
2018-12-09T11:57:50.622Z,11.00
2018-12-09T12:00:27.119Z,14.50
2018-12-09T12:02:57.506Z,16.47
2018-12-09T12:08:13.460Z,16.87
2018-12-09T12:10:47.693Z,15.50
2018-12-09T12:13:18.847Z,13.10
2018-12-09T12:15:49.994Z,14.57
2018-12-09T12:18:21.079Z,17.17
2018-12-09T12:20:59.583Z,11.73
2018-12-09T12:23:32.914Z,12.10
2018-12-09T12:26:03.299Z,12.30
2018-12-09T12:28:33.712Z,10.10
2018-12-09T12:31:04.080Z,10.67
2018-12-09T12:33:56.828Z,15.70
2018-12-09T12:36:46.569Z,13.50
2018-12-09T12:39:17.255Z,12.97
2018-12-09T12:41:47.465Z,16.90
2018-12-09T12:44:18.032Z,12.70
2018-12-09T12:46:49.210Z,16.20
2018-12-09T12:49:22.867Z,11.67
2018-12-09T12:51:53.189Z,9.73
2018-12-09T12:54:26.123Z,14.40
2018-12-09T12:56:59.272Z,12.40
2018-12-09T12:59:29.644Z,13.10
2018-12-09T13:02:05.835Z,11.97
2018-12-09T13:04:56.592Z,8.77
2018-12-09T13:07:26.978Z,12.20
2018-12-09T13:09:57.545Z,11.47
2018-12-09T13:12:28.874Z,15.57
2018-12-09T13:14:59.213Z,9.73
2018-12-09T13:17:30.298Z,14.87
2018-12-09T13:20:04.342Z,13.23
2018-12-09T13:22:34.709Z,11.13
2018-12-09T13:25:09.929Z,10.33
2018-12-09T13:27:40.506Z,12.47
2018-12-09T13:30:15.156Z,9.93
2018-12-09T13:32:45.683Z,6.77
2018-12-09T13:35:16.238Z,10.40
2018-12-09T13:37:49.561Z,11.10
2018-12-09T13:40:20.905Z,8.77
2018-12-09T13:42:54.580Z,7.50
2018-12-09T13:45:25.145Z,6.63
2018-12-09T13:47:58.028Z,4.00
2018-12-09T13:50:29.356Z,7.90
2018-12-09T13:52:59.793Z,10.87
2018-12-09T13:55:31.130Z,10.37
2018-12-09T13:58:04.437Z,9.50
2018-12-09T14:00:37.814Z,12.50
2018-12-09T14:03:08.202Z,7.53
2018-12-09T14:05:49.497Z,4.97
2018-12-09T14:08:24.566Z,8.63
2018-12-09T14:10:54.888Z,6.70
2018-12-09T14:13:31.302Z,7.77
2018-12-09T14:16:01.747Z,7.07
2018-12-09T14:18:35.282Z,6.37
2018-12-09T14:21:05.659Z,7.73
2018-12-09T14:23:36.031Z,7.60
2018-12-09T14:26:06.475Z,9.30
2018-12-09T14:28:40.407Z,6.67
2018-12-09T14:31:13.407Z,8.50
2018-12-09T14:33:43.842Z,11.10
2018-12-09T14:36:21.368Z,7.03
2018-12-09T14:38:51.824Z,7.90
2018-12-09T14:41:22.916Z,10.13
2018-12-09T14:43:58.604Z,10.20
2018-12-09T14:46:28.980Z,10.23
2018-12-09T14:48:59.296Z,9.77
2018-12-09T14:51:29.739Z,9.53
2018-12-09T14:54:03.143Z,7.93
2018-12-09T14:56:36.469Z,6.70
2018-12-09T14:59:06.834Z,7.70
2018-12-09T15:01:42.876Z,7.87
2018-12-09T15:04:16.962Z,9.03
2018-12-09T15:06:47.286Z,11.47
2018-12-09T15:09:20.473Z,8.83
2018-12-09T15:14:36.182Z,10.93
2018-12-09T15:17:09.114Z,11.07
2018-12-09T15:19:42.100Z,8.60
2018-12-09T15:22:12.479Z,10.90
2018-12-09T15:24:42.859Z,7.50
2018-12-09T15:27:16.430Z,10.43
2018-12-09T15:29:47.071Z,7.50
2018-12-09T15:32:18.398Z,9.67
2018-12-09T15:34:48.913Z,10.20
2018-12-09T15:37:22.214Z,6.17
2018-12-09T15:39:55.147Z,9.80
2018-12-09T15:42:25.467Z,10.53
2018-12-09T15:44:55.846Z,12.07
2018-12-09T15:47:29.108Z,6.37
2018-12-09T15:49:59.754Z,9.37
2018-12-09T15:52:37.293Z,8.73
2018-12-09T15:55:11.205Z,9.60
2018-12-09T15:57:44.459Z,6.30
2018-12-09T16:00:23.953Z,7.37
2018-12-09T16:02:54.322Z,8.50
2018-12-09T16:05:32.030Z,5.17
2018-12-09T16:08:02.412Z,8.80
2018-12-09T16:10:32.978Z,11.77
2018-12-09T16:13:10.705Z,13.47
2018-12-09T16:15:43.732Z,13.10
2018-12-09T16:18:29.144Z,11.10
2018-12-09T16:21:02.235Z,7.90
2018-12-09T16:23:51.952Z,7.03
2018-12-09T16:26:24.530Z,8.50
2018-12-09T16:28:58.524Z,7.83
2018-12-09T16:31:28.898Z,5.17
2018-12-09T16:34:01.826Z,7.03
2018-12-09T16:36:32.402Z,8.03
2018-12-09T16:39:05.659Z,7.40
2018-12-09T16:41:38.845Z,5.90
2018-12-09T16:44:09.230Z,6.73
2018-12-09T16:46:39.781Z,8.90
2018-12-09T16:49:17.933Z,11.00
2018-12-09T16:51:48.307Z,5.93
2018-12-09T16:54:19.712Z,7.80
2018-12-09T16:56:52.844Z,7.70
2018-12-09T16:59:27.638Z,9.68
2018-12-09T17:01:58.109Z,3.37
2018-12-09T17:04:35.350Z,7.57
2018-12-09T17:07:05.671Z,5.97
2018-12-09T17:09:36.280Z,4.70
2018-12-09T17:12:06.641Z,5.40
2018-12-09T17:17:30.648Z,8.27
2018-12-09T17:20:06.293Z,3.10
2018-12-09T17:22:42.847Z,7.33
2018-12-09T17:25:13.472Z,7.70
2018-12-09T17:27:46.540Z,7.63
2018-12-09T17:30:19.803Z,8.70
2018-12-09T17:32:50.368Z,6.30
2018-12-09T17:35:21.695Z,7.30
2018-12-09T17:37:58.148Z,11.40
2018-12-09T17:40:35.814Z,7.20
2018-12-09T17:43:09.876Z,4.63
2018-12-09T17:45:42.997Z,7.53
2018-12-09T17:48:13.567Z,11.57
2018-12-09T17:50:44.094Z,6.03
2018-12-09T17:53:17.160Z,6.57
2018-12-09T17:55:50.581Z,7.00
2018-12-09T17:58:26.695Z,8.07
2018-12-09T18:00:57.240Z,5.67
2018-12-09T18:03:27.799Z,4.40
2018-12-09T18:05:58.150Z,10.30
2018-12-09T18:08:28.830Z,7.03
2018-12-09T18:11:01.941Z,10.00
2018-12-09T18:13:35.668Z,8.27
2018-12-09T18:16:06.229Z,7.30
2018-12-09T18:18:47.041Z,7.80
2018-12-09T18:21:20.809Z,4.27
2018-12-09T18:23:55.279Z,5.17
2018-12-09T18:26:27.512Z,9.10
2018-12-09T18:28:57.823Z,5.53
2018-12-09T18:31:34.019Z,5.90
2018-12-09T18:34:04.390Z,4.90
2018-12-09T18:36:37.475Z,5.97
2018-12-09T18:39:08.043Z,3.30
2018-12-09T18:41:41.132Z,3.50
2018-12-09T18:44:16.780Z,4.70
2018-12-09T18:47:08.736Z,3.13
2018-12-09T18:49:39.121Z,4.30
2018-12-09T18:52:11.969Z,4.00
2018-12-09T18:54:51.429Z,2.37
2018-12-09T18:57:22.050Z,4.80
2018-12-09T18:59:52.362Z,3.77
2018-12-09T19:02:26.139Z,2.10
2018-12-09T19:04:59.362Z,4.63
2018-12-09T19:07:36.740Z,3.17
2018-12-09T19:10:07.832Z,4.73
2018-12-09T19:12:40.444Z,9.00
2018-12-09T19:15:13.542Z,5.00
2018-12-09T19:17:43.857Z,2.23
2018-12-09T19:20:14.249Z,5.10
2018-12-09T19:22:47.621Z,6.27
2018-12-09T19:25:18.135Z,9.77
2018-12-09T19:27:57.833Z,9.27
2018-12-09T19:30:48.371Z,7.93
2018-12-09T19:33:18.388Z,5.67
2018-12-09T19:35:51.449Z,3.43
2018-12-09T19:38:27.677Z,5.43
2018-12-09T19:40:58.061Z,4.97
2018-12-09T19:43:28.436Z,3.63
2018-12-09T19:45:58.829Z,4.77
2018-12-09T19:48:30.006Z,2.37
2018-12-09T19:51:00.396Z,3.77
2018-12-09T19:53:31.613Z,4.53
2018-12-09T19:58:52.922Z,2.80
2018-12-09T20:01:25.354Z,3.47
2018-12-09T20:03:55.723Z,3.07
2018-12-09T20:06:30.252Z,2.70
2018-12-09T20:09:08.021Z,5.53
2018-12-09T20:11:41.012Z,4.47
2018-12-09T20:14:11.405Z,2.67
2018-12-09T20:16:44.822Z,2.53
2018-12-09T20:19:16.147Z,4.73
2018-12-09T20:21:49.148Z,2.13
2018-12-09T20:24:20.296Z,3.77
2018-12-09T20:26:50.671Z,3.70
2018-12-09T20:29:30.412Z,2.97
2018-12-09T20:32:06.097Z,3.97
2018-12-09T20:34:39.419Z,4.30
2018-12-09T20:37:10.757Z,5.33
2018-12-09T20:39:42.160Z,3.30
2018-12-09T20:42:21.523Z,3.80
2018-12-09T20:44:51.851Z,3.40
2018-12-09T20:47:22.219Z,2.13
2018-12-09T20:49:52.835Z,3.20
2018-12-09T20:52:26.469Z,3.00
2018-12-09T20:54:56.845Z,4.13
2018-12-09T20:57:27.241Z,4.30
2018-12-09T20:59:59.620Z,3.17
2018-12-09T21:02:30.970Z,4.83
2018-12-09T21:05:23.018Z,7.03
2018-12-09T21:07:53.585Z,5.27
2018-12-09T21:10:23.977Z,2.27
2018-12-09T21:12:54.611Z,5.67
2018-12-09T21:15:28.367Z,3.03
2018-12-09T21:18:01.289Z,4.93
2018-12-09T21:20:31.862Z,4.00
2018-12-09T21:23:06.163Z,2.90
2018-12-09T21:25:36.484Z,6.30
2018-12-09T21:28:12.151Z,2.23
2018-12-09T21:30:45.928Z,6.20
2018-12-09T21:36:06.146Z,2.57
2018-12-09T21:38:39.417Z,7.17
2018-12-09T21:41:09.958Z,5.07
2018-12-09T21:43:40.283Z,4.73
2018-12-09T21:48:56.585Z,4.33
2018-12-09T21:51:34.314Z,3.27
2018-12-09T21:54:04.888Z,4.90
2018-12-09T21:56:35.461Z,3.43
2018-12-09T21:59:05.783Z,6.57
2018-12-09T22:01:36.418Z,7.33
2018-12-09T22:04:09.460Z,6.87
2018-12-09T22:06:40.028Z,8.17
2018-12-09T22:09:11.432Z,5.37
2018-12-09T22:11:42.654Z,5.60
2018-12-09T22:14:15.614Z,4.63
2018-12-09T22:16:46.051Z,7.90
2018-12-09T22:19:16.432Z,6.67
2018-12-09T22:21:46.820Z,7.23
2018-12-09T22:24:17.207Z,8.87
2018-12-09T22:26:51.675Z,6.57
2018-12-09T22:29:22.058Z,8.27
2018-12-09T22:31:52.503Z,8.43
2018-12-09T22:34:25.848Z,5.07
2018-12-09T22:36:59.069Z,6.80
2018-12-09T22:39:35.523Z,7.47
2018-12-09T22:42:05.990Z,7.73
2018-12-09T22:44:36.309Z,6.50
2018-12-09T22:47:06.943Z,3.30
2018-12-09T22:49:37.268Z,6.23
2018-12-09T22:52:07.880Z,6.13
2018-12-09T22:54:44.597Z,6.30
2018-12-09T22:57:15.045Z,4.53
2018-12-09T22:59:46.377Z,4.37
2018-12-09T23:02:34.459Z,7.67
2018-12-09T23:05:05.715Z,7.60
2018-12-09T23:07:52.017Z,5.63
2018-12-09T23:10:26.432Z,5.07
2018-12-09T23:12:56.813Z,9.17
2018-12-09T23:15:27.256Z,7.07
2018-12-09T23:17:58.402Z,6.77
2018-12-09T23:20:29.599Z,7.57
2018-12-09T23:23:03.046Z,5.90
2018-12-09T23:25:34.252Z,6.60
2018-12-09T23:28:04.820Z,6.97
2018-12-09T23:30:35.259Z,8.97
2018-12-09T23:33:05.577Z,3.90
2018-12-09T23:35:36.021Z,8.57
2018-12-09T23:38:06.398Z,5.17
2018-12-09T23:40:36.776Z,4.70
2018-12-09T23:43:07.200Z,6.27
2018-12-09T23:45:37.569Z,5.47
2018-12-09T23:48:07.953Z,8.20
2018-12-09T23:50:38.582Z,6.47
2018-12-09T23:53:08.968Z,7.00
2018-12-09T23:55:39.352Z,7.03
2018-12-09T23:58:11.796Z,11.57
